LIPOLIME

Guest
Details From LIPO - Montichiari
To LIME - Bergamo Orio Al Serio
Flight Number -
Tags Routegen Generated
Created
Modified
Stats Distance 29 nm / 55 km
Max Altitude 100 ft / 30 m
Waypoints 5
Social Downloads 1
Likes 0
Share VATSIM

Download

Looking for another format? Having issues loading an existing format? Contact us
Advertisement - Login to hide

Notes

Departing runway 31 LIPO. Arriving runway 12 LIME.

Route

LIPO +45.49_+010.25 +45.56_+010.02 +45.64_+009.80 LIME

ID Type Via Altitude Latitude Longitude Leg Dist Tot Dist Heading (true) Name
O LIPO APT - 0 ft / 0 m 45.43832˚ 10.31796˚ - 0 nm - -
+45.49_+010.25 LATLON - 100 ft / 30 m 45.49045˚ 10.24639˚ 4 nm 4 nm 316° / 316° -
+45.56_+010.02 LATLON - 100 ft / 30 m 45.56363˚ 10.02274˚ 10 nm 14 nm 295° / 295° -
+45.64_+009.80 LATLON - 100 ft / 30 m 45.63682˚ 9.79908˚ 10 nm 25 nm 295° / 295° -
O LIME APT - 0 ft / 0 m 45.67424˚ 9.71046˚ 4 nm 29 nm 301° / 301° Bergamo Orio Al Serio

Altitude Profile

Advertisement - Login to hide

LIPO

Details ICAO LIPO (VBS)
Name Montichiari
Region Italy
Timezone Europe/Rome (UTC+1.0)
Stats Elevation 344 ft / 105 m (AMSL)
Location 45.428548° 10.331283°
Runways 1
Magnetic Variation 2.738° E

METAR

LIPO 122250Z 24005KT 0400 R32/0550 FZFG NSC M01/M01 Q1015

Decode

TAF

TAF LIPO 121700Z 1218/1318 VRB05KT 1500 BCFG NSC BECMG 1219/1221 0500 FG TEMPO 1222/1308 0200 FZFG BKN005 BECMG 1309/1311 4000 BR

Decode

Departure Runways

ID Width Length Bearing (true) Bearing (mag) Surface Threshold Offset Overrun Length
14 154 ft / 47 m 9,821 ft / 2,993 m 134.99° 132.25° Asphalt 984 ft / 300 m 0 ft / 0 m
32 154 ft / 47 m 9,821 ft / 2,993 m 315.01° 312.27° Asphalt 623 ft / 190 m 0 ft / 0 m

LIME

Details ICAO LIME (BGY)
Name Bergamo Orio Al Serio
Region Italy
Timezone Europe/Rome (UTC+1.0)
Stats Elevation 779 ft / 237 m (AMSL)
Location 45.672004° 9.706892°
Runways 2
Magnetic Variation 2.602° E

METAR

LIME 122320Z 20004KT 160V220 2000 BR SCT070 02/02 Q1014 NOSIG

Decode

TAF

TAF LIME 121700Z 1218/1318 VRB05KT 4000 BR NSC TEMPO 1222/1307 2000 BCFG

Decode

Destination Runways

ID Width Length Bearing (true) Bearing (mag) Surface Threshold Offset Overrun Length
10 148 ft / 45 m 9,897 ft / 3,017 m 104.89° 102.29° Asphalt 312 ft / 95 m 0 ft / 0 m
12 59 ft / 18 m 2,665 ft / 812 m 121.47° 118.87° Asphalt 197 ft / 60 m 0 ft / 0 m
28 148 ft / 45 m 9,897 ft / 3,017 m 284.91° 282.31° Asphalt 712 ft / 217 m 0 ft / 0 m
30 59 ft / 18 m 2,665 ft / 812 m 301.48° 298.88° Asphalt 312 ft / 95 m 0 ft / 0 m

Approach Navaids

Runway Type Ident Frequency Range Bearing (true) Bearing (mag) Slope Elevation
28 Localiser BRM 108.70 MHz 18 nm / 33 km 285.08° 282.48° - 779 ft / 237 m (AMSL)
28 Glidescope BRM 108.70 MHz 10 nm / 19 km 284.90° 282.30° 3.00° 779 ft / 237 m (AMSL)
28 DME BRM 108.70 MHz 18 nm / 33 km - - - 779 ft / 237 m (AMSL)

Popular Alternatives